< < Back
Terminal Aerodrome Forecast


Current Version              Previous Versions:   1  2  3  4  5  6  7  8  9  

Terminal Aerodrome Forecast

727
FTUS44 KBMX 250500
TAFMGM
TAF
KMGM 250523Z 2506/2606 00000KT P6SM SKC
     FM251500 34006KT P6SM SKC=



Latest METAR

538
SAUS80 KWBC 251900 RRA
MTRMGM
METAR KMGM 251853Z 34009KT 10SM CLR 26/07 A3005 RMK AO2 SLP174
T02610067


USA.gov is the U.S. government's official web portal to all federal, state and local government web resources and services.